Denver, CO

3:40 PM MDT on October 23, 2014 (GMT -0600)
Geography and Env. Sciences, CU Denver | Change Station
CLOSE
Current Station
Personal Weather Station
Location: Denver, CO
Elevation: 5225 ft
Nearby Weather Stations

Elev 5225 ft 39.75 °N, 105.00 °W | Updated 19 seconds ago

Mostly Cloudy
Mostly Cloudy
74.9 °F
Feels Like 76 °F
N
2.0
Wind Variable Wind from South
Gusts 2.0 mph

Today
High -- | Low -- °F
--% Chance of Precip.
Yesterday
High -- | Low -- °F
Precip. -- in
7:18 AM 6:09 PM
Waning Crescent, 0% visible
Pressure 30.02 in
Visibility 10.0 miles
Clouds Few 10000 ft
Few 15000 ft
Scattered Clouds 22000 ft
Mostly Cloudy 25000 ft
Heat Index 76 °F
Dew Point 30 °F
Humidity 19%
Rainfall 0.00 in
Snow Depth Not available.
UV 4.4 out of 12
Pollen 2.50 out of 12
PM2.5 Good
Flu Activity Sporadic
METAR KAPA 232053Z 33003KT 10SM FEW100 FEW150 SCT220 BKN250 22/M02 A3014 RMK AO2 SLP165 ACSL DSNT SW-N T02171017 58014

More Conditions Fewer Conditions

Pressure 30.02 in
Visibility 10.0 miles
Clouds Few 10000 ft
Few 15000 ft
Scattered Clouds 22000 ft
Mostly Cloudy 25000 ft
Heat Index 76 °F
Dew Point 30 °F
Humidity 19%
Rainfall 0.00 in
Snow Depth Not available.
UV 4.4 out of 12
Pollen 2.50 out of 12
PM2.5 Good
Flu Activity Sporadic
METAR KAPA 232053Z 33003KT 10SM FEW100 FEW150 SCT220 BKN250 22/M02 A3014 RMK AO2 SLP165 ACSL DSNT SW-N T02171017 58014

More Conditions Fewer Conditions

10-Day Weather Forecast

Almanac

Astronomy

Oct. 23, 2014 Rise Set
Actual Time 7:18 AM MDT 6:09 PM MDT
Civil Twilight 6:51 AM MDT 6:36 PM MDT
Nautical Twilight 6:19 AM MDT 7:08 PM MDT
Astronomical Twilight 5:48 AM MDT 7:39 PM MDT
Moon 7:00 AM MDT 6:12 PM MDT
Length of Visible Light 11h 45m
Length of Day
10h 50m
Tomorrow will be 2m 26s shorter.
Waning Crescent, 0% of the Moon is Illuminated
Today
Waning Crescent
Oct 23
New
Oct 30
First Quarter
Nov 6
Full
Nov 14
Last Quarter

Today's Extremes

State Highs State Lows

Community

WunderPhotos

Upload Photos

1,764,381 photos uploaded!

WunderBlogs® & News

Nearby

Air Quality

  Air Quality AQ Index Pollutant
Yesterday Good
OZONE
Yesterday Good
PM10
Current Good
PM2.5
Thursday Good
OZONE
Thursday Good
PM2.5
Friday Good
OZONE
Friday Good
PM2.5

Snow Depth

Station Depth Elevation
Lake Eldora 0 in 9700 ft
Niwot 0 in 9910 ft
University Camp 0 in 10300 ft
Berthoud Summit 0 in 11300 ft
Copeland Lake 0 in 8600 ft

Earthquake Activity

City Distance Mag. Time & Date
No recent earthquake activity has been reported nearby.
Minimum magnitude displayed is 2.5.

Coastal Water Temperatures

Place Temperature
No Stations Reporting

Nearby Weather Stations